Time;durP1;ratioP1;P1;durP2;ratioP2;P2;SDS_P1;SDS_P2;PMS_P1;PMS_P2;Temp;Humidity;BMP_temperature;BMP_pressure;BME280_temperature;BME280_humidity;BME280_pressure;Samples;Min_cycle;Max_cycle;Signal;HPM_P1;HPM_P2
2022/10/04 00:01:12;;;;;;;2.42;1.42;;;13.60;99.90;;;;;;5052501;28;20053;-75
2022/10/04 00:03:48;;;;;;;2.33;1.00;;;13.20;99.90;;;;;;5053672;28;20067;-75
2022/10/04 00:06:21;;;;;;;2.03;1.17;;;13.10;99.90;;;;;;5052517;28;20044;-75
2022/10/04 00:08:53;;;;;;;3.05;1.35;;;13.00;99.90;;;;;;5053962;28;20029;-76
2022/10/04 00:11:25;;;;;;;0.70;0.70;;;12.70;99.90;;;;;;5053849;28;20067;-75
2022/10/04 00:13:57;;;;;;;1.23;0.82;;;12.50;99.90;;;;;;5053261;28;20404;-75
2022/10/04 00:16:29;;;;;;;4.07;0.90;;;12.50;99.90;;;;;;5052681;28;20041;-75
2022/10/04 00:19:36;;;;;;;3.40;0.80;;;12.30;99.90;;;;;;5051975;28;20041;-76
2022/10/04 00:22:07;;;;;;;1.42;0.80;;;12.10;99.90;;;;;;5026325;28;20049;-76
2022/10/04 00:24:35;;;;;;;1.70;0.90;;;12.00;99.90;;;;;;5033977;28;20056;-75
2022/10/04 00:27:17;;;;;;;2.55;1.13;;;12.00;99.90;;;;;;5033957;28;20413;-76
2022/10/04 00:29:48;;;;;;;1.88;0.90;;;12.00;99.90;;;;;;5033935;28;20128;-76
2022/10/04 00:32:14;;;;;;;1.05;0.70;;;12.10;99.90;;;;;;5033735;28;20049;-75
2022/10/04 00:34:48;;;;;;;1.58;1.02;;;12.10;99.90;;;;;;5033435;28;20087;-76
2022/10/04 00:37:17;;;;;;;1.58;0.95;;;12.10;99.90;;;;;;5033699;28;20042;-76
2022/10/04 00:39:46;;;;;;;1.70;0.80;;;12.10;99.90;;;;;;5033480;28;20046;-75
2022/10/04 00:42:36;;;;;;;3.55;0.90;;;12.10;99.90;;;;;;5033633;28;20125;-76
2022/10/04 00:45:37;;;;;;;3.03;1.00;;;12.20;99.90;;;;;;5033578;28;20107;-76
2022/10/04 00:48:18;;;;;;;0.80;0.77;;;12.20;99.90;;;;;;5033318;28;20490;-75
2022/10/04 00:50:52;;;;;;;1.20;0.93;;;12.30;99.90;;;;;;5033725;28;20037;-75
2022/10/04 00:53:31;;;;;;;1.45;0.73;;;12.30;99.90;;;;;;5033612;28;20048;-75
2022/10/04 00:56:01;;;;;;;1.33;0.93;;;12.00;99.90;;;;;;5043074;28;20037;-75
2022/10/04 00:58:32;;;;;;;1.20;0.80;;;11.80;99.90;;;;;;5052055;28;20041;-75
2022/10/04 01:01:00;;;;;;;1.50;0.70;;;11.70;99.90;;;;;;5053271;28;20531;-75
2022/10/04 01:03:38;;;;;;;1.13;0.80;;;11.60;99.90;;;;;;5051878;28;20496;-75
2022/10/04 01:06:06;;;;;;;1.17;0.70;;;11.60;99.90;;;;;;5053238;28;20104;-75
2022/10/04 01:08:48;;;;;;;1.00;0.70;;;11.80;99.90;;;;;;5053371;28;20045;-75
2022/10/04 01:11:21;;;;;;;2.47;0.90;;;11.70;99.90;;;;;;5052026;28;20036;-75
2022/10/04 01:13:55;;;;;;;1.33;0.90;;;11.70;99.90;;;;;;5053276;28;20404;-75
2022/10/04 01:16:25;;;;;;;2.28;1.00;;;11.90;99.90;;;;;;5053227;28;20083;-75
2022/10/04 01:18:51;;;;;;;1.63;1.08;;;11.90;99.90;;;;;;5053196;28;20043;-75
2022/10/04 01:21:20;;;;;;;1.70;1.00;;;12.00;99.90;;;;;;5053025;28;20516;-75
2022/10/04 01:23:51;;;;;;;1.33;0.95;;;12.20;99.90;;;;;;5053213;28;20595;-75
2022/10/04 01:26:29;;;;;;;1.55;1.00;;;12.20;99.90;;;;;;5053120;28;20128;-75
2022/10/04 01:29:09;;;;;;;1.30;0.93;;;12.30;99.90;;;;;;5053079;28;20108;-75
2022/10/04 01:31:42;;;;;;;1.30;1.00;;;12.40;99.90;;;;;;5054382;28;20037;-75
2022/10/04 01:34:12;;;;;;;1.25;0.90;;;12.40;99.90;;;;;;5055318;28;20496;-75
2022/10/04 01:36:38;;;;;;;1.08;0.98;;;12.30;99.90;;;;;;5056549;28;20033;-75
2022/10/04 01:39:05;;;;;;;1.15;0.80;;;12.30;99.90;;;;;;5054903;28;20049;-75
2022/10/04 01:41:46;;;;;;;1.23;0.90;;;12.30;99.90;;;;;;5056317;28;20049;-75
2022/10/04 01:44:22;;;;;;;2.25;0.90;;;12.30;99.90;;;;;;5056377;28;20037;-76
2022/10/04 01:46:49;;;;;;;1.98;1.23;;;12.10;99.90;;;;;;5056309;28;20032;-75
2022/10/04 01:49:22;;;;;;;3.25;1.13;;;12.00;99.90;;;;;;5054781;28;20076;-76
2022/10/04 01:52:09;;;;;;;1.55;1.00;;;11.90;99.90;;;;;;5054935;28;20045;-75
2022/10/04 01:54:49;;;;;;;1.67;1.17;;;11.70;99.90;;;;;;5056033;28;20040;-75
2022/10/04 01:57:36;;;;;;;2.00;1.17;;;11.80;99.90;;;;;;5056311;28;20044;-75
2022/10/04 02:00:08;;;;;;;3.17;0.90;;;11.80;99.90;;;;;;5054322;28;20090;-75
2022/10/04 02:02:55;;;;;;;1.75;1.20;;;11.60;99.90;;;;;;5056187;28;20106;-75
2022/10/04 02:05:42;;;;;;;1.42;1.00;;;11.60;99.90;;;;;;5056087;28;20033;-73
2022/10/04 02:08:12;;;;;;;3.58;0.98;;;11.30;99.90;;;;;;5055885;28;20569;-74
2022/10/04 02:10:39;;;;;;;1.55;0.90;;;11.40;99.90;;;;;;5056175;28;20045;-75
2022/10/04 02:13:10;;;;;;;1.80;1.30;;;11.30;99.90;;;;;;5055932;28;20036;-75
2022/10/04 02:15:38;;;;;;;;;;;11.20;99.90;;;;;;5056290;28;20052;-75
2022/10/04 02:18:13;;;;;;;2.15;1.00;;;11.30;99.90;;;;;;5055598;28;19915;-75
2022/10/04 02:20:40;;;;;;;2.00;0.98;;;11.20;99.90;;;;;;5055396;28;20063;-75
2022/10/04 02:23:07;;;;;;;1.20;0.90;;;11.10;99.90;;;;;;5055607;28;20128;-75
2022/10/04 02:25:35;;;;;;;2.53;0.93;;;11.10;99.90;;;;;;5055459;28;20455;-76
2022/10/04 02:28:02;;;;;;;1.63;0.90;;;11.00;99.90;;;;;;5051116;28;20397;-75
2022/10/04 02:30:34;;;;;;;1.08;0.77;;;11.00;99.90;;;;;;5042356;28;20409;-75
2022/10/04 02:33:00;;;;;;;1.00;0.90;;;11.00;99.90;;;;;;5034562;28;20083;-75
2022/10/04 02:35:35;;;;;;;0.80;0.73;;;11.00;99.90;;;;;;5035621;28;20128;-76
2022/10/04 02:38:21;;;;;;;1.33;1.00;;;11.10;99.90;;;;;;5035430;28;20092;-76
2022/10/04 02:40:55;;;;;;;1.38;0.90;;;11.00;99.90;;;;;;5050837;28;20084;-75
2022/10/04 02:43:55;;;;;;;5.63;1.10;;;11.10;99.90;;;;;;5034612;28;20025;-76
2022/10/04 02:46:28;;;;;;;1.65;1.17;;;11.00;99.90;;;;;;5035350;28;20037;-75
2022/10/04 02:48:59;;;;;;;1.55;1.02;;;10.90;99.90;;;;;;5033718;28;20405;-75
2022/10/04 02:51:26;;;;;;;;;;;10.90;99.90;;;;;;5035641;28;20045;-76
2022/10/04 02:54:01;;;;;;;1.08;0.98;;;10.90;99.90;;;;;;5035015;28;19909;-75
2022/10/04 02:56:28;;;;;;;3.08;1.13;;;10.90;99.90;;;;;;5033516;28;20039;-75
2022/10/04 02:59:01;;;;;;;3.70;1.00;;;11.00;99.90;;;;;;5033529;28;20132;-75
2022/10/04 03:01:48;;;;;;;1.58;1.00;;;11.00;99.90;;;;;;5033360;28;20087;-76
2022/10/04 03:04:15;;;;;;;1.33;1.10;;;11.00;99.90;;;;;;5034889;28;20037;-76
2022/10/04 03:06:44;;;;;;;2.22;1.30;;;11.00;99.90;;;;;;5035035;28;20040;-75
2022/10/04 03:09:11;;;;;;;1.25;0.93;;;11.00;99.90;;;;;;5034998;28;20080;-76
2022/10/04 03:11:39;;;;;;;1.48;1.10;;;10.90;99.90;;;;;;5034847;28;20045;-75
2022/10/04 03:14:13;;;;;;;1.73;1.30;;;10.90;99.90;;;;;;5033439;28;20045;-76
2022/10/04 03:16:43;;;;;;;1.58;1.10;;;10.80;99.90;;;;;;5034373;28;20081;-75
2022/10/04 03:19:11;;;;;;;1.38;1.20;;;10.60;99.90;;;;;;5034647;28;20045;-75
2022/10/04 03:21:39;;;;;;;1.10;0.95;;;10.70;99.90;;;;;;5034503;28;20405;-75
2022/10/04 03:24:06;;;;;;;1.77;1.30;;;10.70;99.90;;;;;;5033818;28;20033;-74
2022/10/04 03:26:47;;;;;;;2.92;1.17;;;10.50;99.90;;;;;;5054286;28;20079;-75
2022/10/04 03:29:15;;;;;;;1.33;1.05;;;10.40;99.90;;;;;;5052993;28;20033;-75
2022/10/04 03:31:45;;;;;;;2.60;1.38;;;10.30;99.90;;;;;;5054434;28;20118;-75
2022/10/04 03:34:20;;;;;;;1.73;1.23;;;10.20;99.90;;;;;;5053189;28;20084;-75
2022/10/04 03:36:48;;;;;;;2.17;1.20;;;10.20;99.90;;;;;;5054434;28;20061;-75
2022/10/04 03:39:31;;;;;;;1.33;1.20;;;10.10;99.90;;;;;;5053041;28;20397;-75
2022/10/04 03:41:57;;;;;;;1.55;0.93;;;10.10;99.90;;;;;;5054302;28;20132;-75
2022/10/04 03:44:25;;;;;;;5.22;1.20;;;10.20;99.90;;;;;;5054370;28;20526;-75
2022/10/04 03:46:51;;;;;;;1.60;1.15;;;10.20;99.90;;;;;;5054236;28;20044;-75
2022/10/04 03:49:25;;;;;;;1.40;0.93;;;10.20;99.90;;;;;;5053948;28;20404;-76
2022/10/04 03:51:51;;;;;;;3.65;1.20;;;10.30;99.90;;;;;;5054222;28;20594;-76
2022/10/04 03:54:22;;;;;;;1.63;1.27;;;10.30;99.90;;;;;;5052664;28;20068;-75
2022/10/04 03:56:50;;;;;;;1.77;1.25;;;10.30;99.90;;;;;;5052770;28;20033;-76
2022/10/04 03:59:17;;;;;;;1.38;1.13;;;10.40;99.90;;;;;;5054068;28;20056;-76
2022/10/04 04:01:46;;;;;;;1.20;1.10;;;10.50;99.90;;;;;;5053739;28;20148;-75
2022/10/04 04:04:23;;;;;;;2.20;1.20;;;10.40;99.90;;;;;;5052705;28;20037;-76
2022/10/04 04:06:53;;;;;;;3.40;1.88;;;10.40;99.90;;;;;;5054028;28;20107;-76
2022/10/04 04:09:36;;;;;;;6.20;1.98;;;10.50;99.90;;;;;;5054079;28;20064;-75
2022/10/04 04:12:05;;;;;;;2.80;1.70;;;10.60;99.90;;;;;;5053520;28;20151;-76
2022/10/04 04:14:31;;;;;;;3.75;1.80;;;10.70;99.90;;;;;;5053152;28;20039;-75
2022/10/04 04:17:26;;;;;;;3.05;1.95;;;10.60;99.90;;;;;;5052327;28;20029;-76
2022/10/04 04:19:53;;;;;;;2.47;1.45;;;10.60;99.90;;;;;;5053614;28;20051;-76
2022/10/04 04:22:20;;;;;;;2.25;1.55;;;10.50;99.90;;;;;;5052386;28;20041;-76
2022/10/04 04:24:47;;;;;;;3.38;1.65;;;10.40;99.90;;;;;;5053631;28;20086;-76
2022/10/04 04:27:16;;;;;;;2.10;1.67;;;10.40;99.90;;;;;;5053526;28;20053;-76
2022/10/04 04:29:51;;;;;;;2.60;1.98;;;10.40;99.90;;;;;;5053476;28;20116;-75
2022/10/04 04:32:51;;;;;;;2.03;1.48;;;10.30;99.90;;;;;;5053600;28;20044;-76
2022/10/04 04:35:30;;;;;;;4.80;1.92;;;10.20;99.90;;;;;;5052081;28;20082;-76
2022/10/04 04:38:22;;;;;;;3.40;2.13;;;10.20;99.90;;;;;;5051814;28;20048;-76
2022/10/04 04:40:48;;;;;;;2.58;1.83;;;10.20;99.90;;;;;;5053504;28;20124;-75
2022/10/04 04:43:18;;;;;;;2.00;1.77;;;10.10;99.90;;;;;;5053504;28;20079;-74
2022/10/04 04:45:48;;;;;;;3.07;1.70;;;10.10;99.90;;;;;;5052964;28;20052;-74
2022/10/04 04:48:18;;;;;;;4.57;1.83;;;10.20;99.90;;;;;;5052674;28;20306;-76
2022/10/04 04:50:56;;;;;;;2.00;1.70;;;10.30;99.90;;;;;;5051295;28;20040;-75
2022/10/04 04:53:29;;;;;;;2.53;1.88;;;10.30;99.90;;;;;;5053116;28;20045;-76
2022/10/04 04:55:56;;;;;;;1.98;1.50;;;10.50;99.90;;;;;;5053337;28;20040;-76
2022/10/04 04:58:31;;;;;;;2.45;1.83;;;10.50;99.90;;;;;;5053159;28;20037;-76
2022/10/04 05:01:01;;;;;;;2.63;1.80;;;10.50;99.90;;;;;;5051348;28;20099;-76
2022/10/04 05:03:29;;;;;;;4.43;1.80;;;10.60;99.90;;;;;;5052773;28;20037;-76
2022/10/04 05:05:57;;;;;;;2.33;1.52;;;10.50;99.90;;;;;;5053452;28;20045;-75
2022/10/04 05:08:29;;;;;;;4.65;1.70;;;10.60;99.90;;;;;;5056533;28;20041;-75
2022/10/04 05:11:07;;;;;;;3.28;1.80;;;10.60;99.90;;;;;;5054985;28;20099;-74
2022/10/04 05:13:42;;;;;;;3.53;1.80;;;10.70;99.90;;;;;;5057096;28;20051;-74
2022/10/04 05:16:48;;;;;;;3.60;1.83;;;10.60;99.90;;;;;;5055776;28;20511;-74
2022/10/04 05:19:18;;;;;;;3.78;2.03;;;10.60;99.90;;;;;;5055264;28;20047;-74
2022/10/04 05:21:45;;;;;;;2.85;2.08;;;10.60;99.90;;;;;;5054705;28;20053;-74
2022/10/04 05:24:26;;;;;;;3.47;1.63;;;10.40;99.90;;;;;;5055382;28;20074;-74
2022/10/04 05:26:56;;;;;;;2.70;2.10;;;10.60;99.90;;;;;;5055419;28;20048;-74
2022/10/04 05:29:26;;;;;;;2.78;1.90;;;10.60;99.90;;;;;;5056372;28;20080;-73
2022/10/04 05:32:02;;;;;;;3.40;2.50;;;10.50;99.90;;;;;;5055514;28;20035;-74
2022/10/04 05:34:38;;;;;;;2.55;1.80;;;10.60;99.90;;;;;;5053076;28;20069;-74
2022/10/04 05:37:29;;;;;;;5.28;1.98;;;10.50;99.90;;;;;;5052552;28;20374;-73
2022/10/04 05:40:01;;;;;;;4.57;2.40;;;10.50;99.90;;;;;;5053983;28;20079;-77
2022/10/04 05:42:43;;;;;;;3.78;2.50;;;10.20;99.90;;;;;;5056369;28;20037;-77
2022/10/04 05:45:28;;;;;;;4.13;2.42;;;10.30;99.90;;;;;;5056133;28;20135;-78
2022/10/04 05:48:00;;;;;;;4.03;2.70;;;10.30;99.90;;;;;;5056516;28;20128;-75
2022/10/04 05:50:41;;;;;;;3.47;2.40;;;10.40;99.90;;;;;;5055215;28;20424;-75
2022/10/04 05:53:25;;;;;;;5.00;2.85;;;10.40;99.90;;;;;;5055082;28;20032;-76
2022/10/04 05:56:28;;;;;;;5.65;2.92;;;10.10;99.90;;;;;;5056330;28;20040;-76
2022/10/04 05:59:24;;;;;;;4.53;2.55;;;10.10;99.90;;;;;;5054885;28;20041;-78
2022/10/04 06:02:14;;;;;;;3.28;2.38;;;10.10;99.90;;;;;;5056239;28;20504;-78
2022/10/04 06:05:06;;;;;;;3.30;2.42;;;10.10;99.90;;;;;;5056114;28;20476;-76
2022/10/04 06:07:51;;;;;;;2.53;2.00;;;10.10;99.90;;;;;;5056213;28;20045;-73
2022/10/04 06:10:28;;;;;;;3.33;2.05;;;10.00;99.90;;;;;;5056065;28;20032;-75
2022/10/04 06:13:27;;;;;;;7.63;2.58;;;10.00;99.90;;;;;;5056028;28;20519;-78
2022/10/04 06:16:41;;;;;;;5.00;2.40;;;10.00;99.90;;;;;;5036100;28;20067;-78
2022/10/04 06:19:27;;;;;;;4.40;3.20;;;10.10;99.90;;;;;;5007746;28;20079;-78
2022/10/04 06:22:02;;;;;;;6.30;2.83;;;10.10;99.90;;;;;;5054328;28;20451;-78
2022/10/04 06:24:33;;;;;;;6.45;3.20;;;10.10;99.90;;;;;;5055834;28;20064;-78
2022/10/04 06:27:08;;;;;;;5.35;3.20;;;10.20;99.90;;;;;;5055849;28;20516;-77
2022/10/04 06:29:46;;;;;;;5.47;3.00;;;10.30;99.90;;;;;;5055868;28;20086;-78
2022/10/04 06:32:31;;;;;;;3.00;2.00;;;10.30;99.90;;;;;;5053763;28;20439;-78
2022/10/04 06:35:24;;;;;;;7.72;2.45;;;10.30;99.90;;;;;;5043100;28;20072;-78
2022/10/04 06:38:23;;;;;;;3.47;2.38;;;10.30;99.90;;;;;;5033167;28;20037;-78
2022/10/04 06:41:10;;;;;;;3.88;2.30;;;10.20;99.90;;;;;;5035155;28;20053;-79
2022/10/04 06:44:01;;;;;;;3.75;2.88;;;10.20;99.90;;;;;;5046979;28;20045;-78
2022/10/04 06:47:07;;;;;;;2.42;1.95;;;10.20;99.90;;;;;;5055183;28;20036;-78
2022/10/04 06:49:36;;;;;;;5.45;2.05;;;10.20;99.90;;;;;;5070648;28;20037;-78
2022/10/04 06:52:33;;;;;;;3.03;2.08;;;10.20;99.90;;;;;;5055315;28;20401;-78
2022/10/04 06:55:30;;;;;;;5.80;2.70;;;10.10;99.90;;;;;;5054946;28;20134;-77
2022/10/04 06:58:32;;;;;;;5.97;2.78;;;10.20;99.90;;;;;;5053940;28;20086;-76
2022/10/04 07:01:09;;;;;;;5.43;3.10;;;10.40;99.90;;;;;;5055020;28;20055;-78
2022/10/04 07:03:51;;;;;;;6.63;3.67;;;10.50;99.90;;;;;;5055005;28;20057;-76
2022/10/04 07:06:25;;;;;;;9.07;3.75;;;10.80;99.90;;;;;;5054980;28;20493;-78
2022/10/04 07:08:58;;;;;;;5.80;3.85;;;10.70;99.90;;;;;;5054703;28;20036;-77
2022/10/04 07:11:52;;;;;;;8.57;4.25;;;10.70;99.90;;;;;;5054672;28;20052;-76
2022/10/04 07:14:29;;;;;;;10.80;4.97;;;10.90;99.90;;;;;;5047912;28;20119;-79
2022/10/04 07:17:02;;;;;;;9.90;5.22;;;11.10;99.90;;;;;;5054677;28;20045;-78
2022/10/04 07:19:33;;;;;;;10.93;5.30;;;11.00;99.90;;;;;;5054678;28;20456;-78
2022/10/04 07:22:14;;;;;;;11.57;5.82;;;11.10;99.90;;;;;;5054491;28;20048;-78
2022/10/04 07:25:04;;;;;;;11.38;5.55;;;11.20;99.90;;;;;;5054791;28;20056;-78
2022/10/04 07:31:26;;;;;;;10.68;5.25;;;11.40;99.90;;;;;;5054321;28;20044;-81
2022/10/04 07:34:34;;;;;;;10.27;5.60;;;11.50;99.90;;;;;;5037328;28;20043;-78
2022/10/04 07:37:09;;;;;;;12.23;6.07;;;11.30;99.90;;;;;;5069847;28;20461;-80
2022/10/04 07:39:56;;;;;;;13.68;5.63;;;11.20;99.90;;;;;;5054471;28;20072;-78
2022/10/04 07:42:43;;;;;;;11.32;5.35;;;11.30;99.90;;;;;;5054376;28;20044;-77
2022/10/04 07:45:19;;;;;;;9.50;5.70;;;11.20;99.90;;;;;;5054515;28;20037;-77
2022/10/04 07:47:45;;;;;;;7.15;4.90;;;11.20;99.90;;;;;;5054317;28;20037;-78
2022/10/04 07:50:25;;;;;;;11.82;5.95;;;11.30;99.90;;;;;;5053514;28;20041;-77
2022/10/04 07:53:06;;;;;;;10.40;5.50;;;11.50;99.90;;;;;;5052676;28;20439;-77
2022/10/04 07:55:48;;;;;;;13.07;7.30;;;11.20;99.90;;;;;;5054159;28;20037;-77
2022/10/04 07:58:42;;;;;;;8.77;5.60;;;11.20;99.90;;;;;;5053359;28;20057;-77
2022/10/04 08:01:31;;;;;;;9.65;5.20;;;11.30;99.90;;;;;;5051354;28;20575;-76
2022/10/04 08:04:17;;;;;;;8.13;4.35;;;11.50;99.90;;;;;;5053291;28;20044;-77
2022/10/04 08:06:58;;;;;;;9.55;4.90;;;11.70;99.90;;;;;;5051758;28;20117;-78
2022/10/04 08:09:41;;;;;;;10.23;5.18;;;11.80;99.90;;;;;;5054070;28;20040;-76
2022/10/04 08:12:17;;;;;;;8.85;5.25;;;11.80;99.90;;;;;;5053110;28;20065;-76
2022/10/04 08:14:49;;;;;;;7.45;4.65;;;11.30;99.90;;;;;;5052233;28;20045;-78
2022/10/04 08:17:35;;;;;;;9.13;5.03;;;11.10;99.90;;;;;;5049336;28;20377;-79
2022/10/04 08:20:33;;;;;;;6.45;4.25;;;11.20;99.90;;;;;;5052684;28;20123;-77
2022/10/04 08:23:17;;;;;;;10.85;4.72;;;11.30;99.90;;;;;;5053899;28;20045;-79
2022/10/04 08:26:13;;;;;;;7.05;4.30;;;11.60;99.90;;;;;;5053817;28;20086;-76
2022/10/04 08:31:54;;;;;;;8.02;4.63;;;11.30;99.90;;;;;;5053914;28;20130;-79
2022/10/04 08:34:52;;;;;;;8.35;4.85;;;11.40;99.90;;;;;;5053680;28;20080;-79
2022/10/04 08:37:36;;;;;;;6.78;4.72;;;11.30;99.90;;;;;;5053685;28;20033;-76
2022/10/04 08:40:14;;;;;;;8.68;4.80;;;11.70;99.90;;;;;;5052235;28;20131;-77
2022/10/04 08:43:10;;;;;;;11.07;5.75;;;11.90;99.90;;;;;;5055645;28;20448;-76
2022/10/04 08:45:55;;;;;;;7.82;5.07;;;12.00;99.90;;;;;;5056527;28;20045;-78
2022/10/04 08:48:56;;;;;;;9.80;5.40;;;12.20;99.90;;;;;;5057679;28;20037;-76
2022/10/04 08:52:10;;;;;;;11.25;5.32;;;12.20;99.90;;;;;;5056249;28;20627;-76
2022/10/04 08:55:04;;;;;;;9.80;5.05;;;12.40;99.90;;;;;;5044294;28;20033;-78
2022/10/04 08:57:30;;;;;;;12.15;6.05;;;12.70;99.90;;;;;;5042264;28;20068;-74
2022/10/04 09:00:12;;;;;;;8.75;5.32;;;12.60;99.90;;;;;;5055988;28;20488;-77
2022/10/04 09:03:12;;;;;;;7.15;4.57;;;12.70;99.90;;;;;;5057485;28;20044;-77
2022/10/04 09:05:58;;;;;;;10.38;5.82;;;13.00;99.90;;;;;;5057380;28;20037;-76
2022/10/04 09:08:45;;;;;;;8.75;5.57;;;13.40;99.90;;;;;;5057449;28;20076;-77
2022/10/04 09:11:40;;;;;;;7.60;4.97;;;13.50;99.90;;;;;;5057300;28;20033;-77
2022/10/04 09:14:50;;;;;;;6.75;4.65;;;13.90;99.90;;;;;;5057017;28;20048;-77
2022/10/04 09:17:25;;;;;;;8.98;4.65;;;13.80;99.90;;;;;;5057113;28;20044;-76
2022/10/04 09:19:57;;;;;;;6.07;4.65;;;14.00;99.90;;;;;;5055885;28;20033;-76
2022/10/04 09:22:48;;;;;;;9.15;5.65;;;14.00;99.90;;;;;;5057089;28;20104;-78
2022/10/04 09:25:50;;;;;;;7.03;4.60;;;14.00;99.90;;;;;;5056983;28;20457;-78
2022/10/04 09:28:44;;;;;;;6.55;4.38;;;14.30;99.90;;;;;;5056863;28;20412;-77
2022/10/04 09:31:48;;;;;;;9.60;5.60;;;14.40;99.90;;;;;;5055523;28;20060;-78
2022/10/04 09:34:32;;;;;;;9.00;6.15;;;14.30;99.90;;;;;;5014353;28;20036;-77
2022/10/04 09:37:15;;;;;;;10.68;6.60;;;14.70;99.90;;;;;;5013641;28;20037;-78
2022/10/04 09:39:59;;;;;;;13.75;7.05;;;15.40;99.90;;;;;;5037873;28;20412;-77
2022/10/04 09:42:49;;;;;;;9.98;5.70;;;15.50;99.90;;;;;;5038446;28;20085;-76
2022/10/04 09:45:22;;;;;;;8.63;5.85;;;15.70;99.90;;;;;;5036467;28;20083;-76
2022/10/04 09:48:16;;;;;;;5.90;4.38;;;15.70;99.90;;;;;;5035202;28;20053;-75
2022/10/04 09:51:05;;;;;;;7.35;4.93;;;;;;;;;;5036643;28;20125;-72
2022/10/04 09:53:53;;;;;;;7.15;4.93;;;16.30;99.90;;;;;;5036191;28;20044;-76
2022/10/04 09:56:58;;;;;;;4.80;3.58;;;16.30;99.90;;;;;;5036477;28;20067;-75
2022/10/04 09:59:35;;;;;;;5.82;3.92;;;16.70;99.90;;;;;;5049306;28;20044;-76
2022/10/04 10:02:30;;;;;;;5.15;3.45;;;16.90;99.90;;;;;;5054950;28;20586;-74
2022/10/04 10:05:20;;;;;;;6.28;2.85;;;16.60;99.90;;;;;;5016791;28;20500;-75
2022/10/04 10:08:05;;;;;;;4.85;3.28;;;16.40;99.90;;;;;;5062207;28;20033;-75
2022/10/04 10:13:42;;;;;;;6.50;3.25;;;16.20;99.90;;;;;;5036122;28;20036;-75
2022/10/04 10:16:28;;;;;;;4.43;2.70;;;15.90;99.90;;;;;;5051387;28;20071;-76
2022/10/04 10:19:17;;;;;;;6.07;3.33;;;16.00;99.90;;;;;;5035874;28;20119;-76
2022/10/04 10:21:54;;;;;;;7.90;2.60;;;16.10;99.90;;;;;;5027718;28;20578;-76
2022/10/04 10:24:37;;;;;;;6.65;4.57;;;16.20;99.90;;;;;;5035975;28;20041;-77
2022/10/04 10:27:15;;;;;;;7.68;3.50;;;16.30;99.90;;;;;;5035930;28;20132;-75
2022/10/04 10:29:47;;;;;;;5.40;3.47;;;16.20;99.90;;;;;;5034577;28;20033;-77
2022/10/04 10:32:43;;;;;;;4.47;2.95;;;16.30;99.90;;;;;;5035880;28;20119;-75
2022/10/04 10:35:19;;;;;;;7.60;3.35;;;16.30;99.90;;;;;;5034473;28;20390;-75
2022/10/04 10:37:45;;;;;;;5.45;3.28;;;16.20;99.90;;;;;;5039512;28;20098;-75
2022/10/04 10:40:59;;;;;;;4.85;2.92;;;16.20;99.90;;;;;;5045758;28;20108;-75
2022/10/04 10:43:32;;;;;;;5.85;4.22;;;16.10;99.90;;;;;;5053173;28;20558;-75
2022/10/04 10:46:14;;;;;;;5.75;3.75;;;16.00;99.90;;;;;;5052493;28;20480;-75
2022/10/04 10:49:39;;;;;;;5.32;3.53;;;16.00;99.90;;;;;;5053609;28;20060;-74
2022/10/04 10:52:26;;;;;;;5.53;3.75;;;16.00;99.90;;;;;;5011864;28;20045;-75
2022/10/04 10:55:21;;;;;;;7.55;4.80;;;16.00;99.90;;;;;;5032411;28;20068;-74
2022/10/04 10:58:29;;;;;;;6.50;4.28;;;15.70;99.90;;;;;;5033053;28;20065;-74
2022/10/04 11:01:18;;;;;;;8.13;4.68;;;15.50;99.90;;;;;;5032952;28;20408;-74
2022/10/04 11:04:25;;;;;;;6.50;3.92;;;15.40;99.90;;;;;;5033140;28;20048;-73
2022/10/04 11:07:25;;;;;;;6.55;4.00;;;15.50;99.90;;;;;;5051896;28;20047;-74
2022/10/04 11:10:29;;;;;;;6.78;4.43;;;15.40;99.90;;;;;;5033011;28;20060;-74
2022/10/04 11:13:24;;;;;;;6.70;4.35;;;15.50;99.90;;;;;;5033087;28;20065;-75
2022/10/04 11:16:20;;;;;;;7.43;4.47;;;15.30;99.90;;;;;;5043664;28;20092;-75
2022/10/04 11:19:05;;;;;;;6.65;4.20;;;15.50;99.90;;;;;;5033620;28;20065;-75
2022/10/04 11:22:20;;;;;;;7.20;4.55;;;15.20;99.90;;;;;;5032868;28;20045;-76
2022/10/04 11:25:35;;;;;;;6.32;4.50;;;15.50;99.90;;;;;;5032547;28;20043;-76
2022/10/04 11:28:48;;;;;;;7.10;4.95;;;15.10;99.90;;;;;;5048300;28;20033;-76
2022/10/04 11:31:30;;;;;;;7.25;4.75;;;15.10;99.90;;;;;;5048309;28;20041;-77
2022/10/04 11:34:16;;;;;;;7.75;5.10;;;15.10;99.90;;;;;;5052338;28;20048;-76
2022/10/04 11:36:48;;;;;;;7.85;4.93;;;15.40;99.90;;;;;;5052254;28;20570;-76
2022/10/04 11:39:32;;;;;;;8.85;4.85;;;15.90;99.90;;;;;;5051878;28;20041;-76
2022/10/04 11:42:42;;;;;;;11.02;5.20;;;16.30;99.90;;;;;;5052664;28;20136;-77
2022/10/04 11:45:32;;;;;;;7.55;5.13;;;16.20;99.90;;;;;;5040404;28;20033;-76
2022/10/04 11:48:13;;;;;;;8.35;5.20;;;16.10;99.90;;;;;;5052473;28;20043;-73
2022/10/04 11:51:02;;;;;;;6.68;4.45;;;16.50;99.90;;;;;;5051759;28;20037;-76
2022/10/04 11:54:06;;;;;;;7.63;4.88;;;16.50;99.90;;;;;;5052524;28;20051;-76
2022/10/04 11:56:46;;;;;;;10.32;5.95;;;15.90;99.90;;;;;;5052126;28;20048;-76
2022/10/04 11:59:57;;;;;;;9.77;4.82;;;16.30;99.90;;;;;;5050242;28;20051;-77
2022/10/04 12:02:44;;;;;;;7.72;4.97;;;16.30;99.90;;;;;;5050179;28;20428;-76
2022/10/04 12:05:22;;;;;;;8.80;4.80;;;16.10;99.90;;;;;;5051048;28;20044;-76
2022/10/04 12:08:00;;;;;;;7.90;5.15;;;16.30;99.90;;;;;;5052020;28;20043;-73
2022/10/04 12:10:38;;;;;;;7.60;4.40;;;16.90;99.90;;;;;;5053643;28;20128;-75
2022/10/04 12:13:16;;;;;;;6.18;4.30;;;17.00;99.90;;;;;;5053622;28;20049;-75
2022/10/04 12:15:48;;;;;;;7.10;4.53;;;;;;;;;;5053549;28;20060;-79
2022/10/04 12:18:41;;;;;;;9.70;4.32;;;17.40;99.90;;;;;;5068905;28;20044;-76
2022/10/04 12:21:19;;;;;;;7.28;4.65;;;17.70;99.90;;;;;;5051889;28;20389;-74
2022/10/04 12:23:58;;;;;;;7.25;4.45;;;17.10;99.90;;;;;;5048947;28;20504;-73
2022/10/04 12:26:55;;;;;;;8.77;5.00;;;17.40;99.90;;;;;;5050900;28;20041;-74
2022/10/04 12:29:39;;;;;;;9.50;4.78;;;17.50;99.90;;;;;;5050673;28;20467;-74
2022/10/04 12:32:26;;;;;;;8.02;4.95;;;17.10;99.90;;;;;;5049578;28;20083;-75
2022/10/04 12:35:01;;;;;;;10.07;5.10;;;17.10;99.90;;;;;;5050582;28;20040;-74
2022/10/04 12:37:39;;;;;;;8.68;5.35;;;17.40;99.90;;;;;;5049468;28;20040;-74
2022/10/04 12:40:32;;;;;;;8.85;5.35;;;17.50;99.90;;;;;;5050912;28;20127;-74
2022/10/04 12:43:25;;;;;;;9.13;5.03;;;17.60;99.90;;;;;;5050464;28;20049;-73
2022/10/04 12:46:29;;;;;;;6.05;4.45;;;17.40;99.90;;;;;;5049893;28;20032;-74
2022/10/04 12:49:16;;;;;;;8.48;4.13;;;17.60;99.90;;;;;;5032451;28;20570;-74
2022/10/04 12:51:50;;;;;;;7.35;3.97;;;17.80;99.90;;;;;;5049216;28;20558;-74
2022/10/04 12:54:46;;;;;;;5.32;3.83;;;18.10;99.90;;;;;;5049667;28;20049;-77
2022/10/04 12:57:32;;;;;;;5.90;3.83;;;18.20;99.90;;;;;;5050688;28;20040;-76
2022/10/04 13:00:02;;;;;;;8.10;4.35;;;18.30;99.90;;;;;;5045946;28;20036;-77
2022/10/04 13:02:47;;;;;;;7.65;4.88;;;18.00;99.90;;;;;;5050965;28;20080;-78
2022/10/04 13:05:35;;;;;;;7.55;4.95;;;17.80;99.90;;;;;;5049428;28;20038;-78
2022/10/04 13:08:23;;;;;;;5.90;3.95;;;17.70;99.90;;;;;;5053412;28;20116;-76
2022/10/04 13:10:48;;;;;;;6.38;4.15;;;17.50;99.90;;;;;;5053628;28;20033;-78
2022/10/04 13:13:28;;;;;;;5.97;4.30;;;17.70;99.90;;;;;;5053359;28;20071;-78
2022/10/04 13:16:21;;;;;;;5.50;4.00;;;17.90;99.90;;;;;;5052054;28;20041;-77
2022/10/04 13:19:24;;;;;;;5.85;3.72;;;18.30;99.90;;;;;;5045411;28;20037;-78
2022/10/04 13:22:11;;;;;;;5.00;3.70;;;18.20;99.90;;;;;;5068510;28;20052;-77
2022/10/04 13:25:13;;;;;;;4.32;3.15;;;18.20;99.90;;;;;;5053293;28;20029;-78
2022/10/04 13:27:56;;;;;;;5.25;3.50;;;18.60;99.90;;;;;;5054709;28;20056;-78
2022/10/04 13:30:44;;;;;;;5.63;3.95;;;18.40;99.90;;;;;;5055616;28;20511;-78
2022/10/04 13:33:30;;;;;;;5.80;4.18;;;18.30;99.90;;;;;;5056379;28;20048;-78
2022/10/04 13:36:02;;;;;;;7.55;4.72;;;18.30;99.90;;;;;;5056571;28;20094;-78
2022/10/04 13:38:42;;;;;;;5.57;3.53;;;18.30;99.90;;;;;;5056479;28;20500;-78
2022/10/04 13:41:33;;;;;;;6.72;3.75;;;18.50;99.90;;;;;;5055057;28;20075;-77
2022/10/04 13:44:29;;;;;;;;;;;18.40;99.90;;;;;;5055659;28;20128;-75
2022/10/04 13:47:22;;;;;;;7.25;4.15;;;18.50;99.90;;;;;;5027645;28;20273;-76
2022/10/04 13:50:25;;;;;;;8.75;4.45;;;18.40;99.90;;;;;;5036536;28;20107;-78
2022/10/04 13:58:55;;;;;;;7.40;4.95;;;18.20;99.90;;;;;;5036450;28;20040;-77
2022/10/04 14:02:11;;;;;;;6.70;4.88;;;18.20;99.90;;;;;;5036441;28;20053;-79
2022/10/04 14:05:18;;;;;;;11.90;6.38;;;18.20;99.90;;;;;;5036397;28;20375;-79
2022/10/04 14:08:06;;;;;;;7.35;4.85;;;18.10;99.90;;;;;;5036328;28;20042;-79
2022/10/04 14:10:59;;;;;;;7.13;4.63;;;18.00;99.90;;;;;;5036175;28;20116;-76
2022/10/04 14:13:33;;;;;;;7.55;5.18;;;18.20;99.90;;;;;;5044174;28;20052;-78
2022/10/04 14:16:21;;;;;;;8.15;5.13;;;18.00;99.90;;;;;;5055968;28;20041;-76
2022/10/04 14:19:21;;;;;;;7.88;5.03;;;17.90;99.90;;;;;;5056049;28;20036;-79